METAR* REPORTS - Stations within 60 miles

(*Meteorological Terminal Aviation Routine weather report)

 

KRDG - Reading, Pennsylvania, USA
Distance from station: SE 19mi, 31km
Updated: Tue, 23-Jul-2019 1:09pm EDT
Overcast
Overcast
 Wind from NW
Wind: NW 12 mph , 19 km/h
Temperature: 75°F , 24°C
Dew Point: 66°F , 19°C
Humidity: 74%
Barometer: 29.86 inHg , 1011.2 hPa
Clouds: Overcast
Visibility: 10 miles , 16 km
Cloud details: Mostly Cloudy 2500 ft
Overcast 4100 ft
2019/07/23 17:09 KRDG 231709Z 32010KT 10SM BKN025 OVC041 24/19 A2986 RMK AO2 T02390194
KLNS - Lancaster, Pennsylvania, USA
Distance from station: S 33mi, 53km
Updated: Tue, 23-Jul-2019 12:53pm EDT
Overcast
Overcast
 Wind from NNW
Wind: NNW 8 mph , 13 km/h
Temperature: 73°F , 23°C
Dew Point: 64°F , 18°C
Humidity: 74%
Barometer: 29.88 inHg , 1011.9 hPa
Clouds: Overcast
Visibility: 10 miles , 16 km
Cloud details: Few Clouds 2300 ft
Overcast 3500 ft
2019/07/23 16:53 KLNS 231653Z 34007KT 10SM FEW023 OVC035 23/18 A2988 RMK AO2 SLP117 T02330183
 
KSEG - Selinsgrove, Pennsylvania, USA
Distance from station: WNW 39mi, 62km
Updated: Tue, 23-Jul-2019 12:53pm EDT
Few Clouds
Few Clouds
 Wind from N
Wind: N 9 mph , 15 km/h
Temperature: 77°F , 25°C
Dew Point: 61°F , 16°C
Humidity: 57%
Barometer: 29.90 inHg , 1012.5 hPa
Clouds: Few Clouds
Visibility: 10 miles , 16 km
Cloud details: Few Clouds 4800 ft
2019/07/23 16:53 KSEG 231653Z AUTO 01008KT 10SM FEW048 25/16 A2990 RMK AO2 SLP121 T02500161
KABE - Allentown, Pennsylvania, USA
Distance from station: E 39mi, 63km
Updated: Tue, 23-Jul-2019 12:51pm EDT
Overcast
Overcast
 Wind from N
Wind: N 7 mph , 11 km/h
Temperature: 73°F , 23°C
Dew Point: 63°F , 17°C
Humidity: 69%
Barometer: 29.86 inHg , 1011.2 hPa
Clouds: Overcast
Visibility: 10 miles , 16 km
Cloud details: Overcast 3700 ft
2019/07/23 16:51 KABE 231651Z 35006KT 10SM OVC037 23/17 A2986 RMK AO2 SLP109 T02330172
 
KMDT - Middletown, Pennsylvania, USA
Distance from station: SW 40mi, 65km
Updated: Tue, 23-Jul-2019 12:56pm EDT
Overcast
Overcast
 Wind from NW
Wind: NW 8 mph , 13 km/h
Temperature: 73°F , 23°C
Dew Point: 63°F , 17°C
Humidity: 69%
Barometer: 29.87 inHg , 1011.5 hPa
Clouds: Overcast
Visibility: 10 miles , 16 km
Cloud details: Mostly Cloudy 4000 ft
Overcast 4800 ft
2019/07/23 16:56 KMDT 231656Z 32007KT 10SM BKN040 OVC048 23/17 A2987 RMK AO2 SLP115 T02280167
KPTW - Pottstown, Pennsylvania, USA
Distance from station: SE 42mi, 67km
Updated: Tue, 23-Jul-2019 1:14pm EDT
Overcast
Overcast
 Wind from NNW
Wind: NNW 8 mph , 13 km/h
Temperature: 72°F , 22°C
Dew Point: 64°F , 18°C
Humidity: 78%
Barometer: 29.89 inHg , 1012.2 hPa
Clouds: Overcast
Visibility: 10 miles , 16 km
Cloud details: Few Clouds 2100 ft
Partly Cloudy 2800 ft
Overcast 3300 ft
2019/07/23 17:14 KPTW 231714Z AUTO 34007KT 10SM FEW021 SCT028 OVC033 22/18 A2989 RMK AO2 T02220183
 
KCXY - Harrisburg, Pennsylvania, USA
Distance from station: SW 43mi, 69km
Updated: Tue, 23-Jul-2019 12:56pm EDT
Overcast
Overcast
 Wind from N
Wind: N 5 mph , 7 km/h
Temperature: 75°F , 24°C
Dew Point: 61°F , 16°C
Humidity: 61%
Barometer: 29.89 inHg , 1012.2 hPa
Clouds: Overcast
Visibility: 10 miles , 16 km
Cloud details: Few Clouds 2600 ft
Partly Cloudy 3700 ft
Overcast 4600 ft
2019/07/23 16:56 KCXY 231656Z 36004KT 10SM FEW026 SCT037 OVC046 24/16 A2989 RMK AO2 SLP120 T02440161
KUKT - Quakertown Arp, Pennsylvania, USA
Distance from station: ESE 44mi, 70km
Updated: Tue, 23-Jul-2019 1:35pm EDT
Overcast
Overcast
 Wind from NNW
Wind: NNW 5 mph , 7 km/h
Temperature: 73°F , 23°C
Dew Point: 64°F , 18°C
Humidity: 74%
Barometer: 29.89 inHg , 1012.2 hPa
Clouds: Overcast
Visibility: 10 miles , 16 km
Cloud details: Few Clouds 2200 ft
Mostly Cloudy 3200 ft
Overcast 4000 ft
2019/07/23 17:35 KUKT 231735Z AUTO 33004KT 10SM FEW022 BKN032 OVC040 23/18 A2989 RMK A01
 
KMQS - Coatesville, Pennsylvania, USA
Distance from station: SSE 45mi, 72km
Updated: Tue, 23-Jul-2019 1:35pm EDT
Overcast
Overcast
 Wind from NNW
Wind: NNW 7 mph , 11 km/h
Temperature: 72°F , 22°C
Dew Point: 64°F , 18°C
Humidity: 78%
Barometer: 29.90 inHg , 1012.5 hPa
Clouds: Overcast
Visibility: 10 miles , 16 km
Cloud details: Few Clouds 1900 ft
Mostly Cloudy 3700 ft
Overcast 4200 ft
2019/07/23 17:35 KMQS 231735Z AUTO 34006KT 10SM FEW019 BKN037 OVC042 22/18 A2990 RMK AO2
KMPO - Mt. Pocono, Pennsylvania, USA
Distance from station: NE 57mi, 92km
Updated: Tue, 23-Jul-2019 12:53pm EDT
Overcast
Overcast
 Wind from N
Wind: N 10 mph , 17 km/h
Temperature: 66°F , 19°C
Dew Point: 61°F , 16°C
Humidity: 83%
Barometer: 29.91 inHg , 1012.9 hPa
Clouds: Overcast
Visibility: 10 miles , 16 km
Cloud details: Mostly Cloudy 1900 ft
Mostly Cloudy 2400 ft
Overcast 3200 ft
2019/07/23 16:53 KMPO 231653Z AUTO 35009KT 10SM BKN019 BKN024 OVC032 19/16 A2991 RMK AO2 SLP122 T01940156
 
KAVP - Avoca/Wilkes B., Pennsylvania, USA
Distance from station: NNE 58mi, 93km
Updated: Tue, 23-Jul-2019 12:54pm EDT
Partly Cloudy
Partly Cloudy
 Wind from N
Wind: N 9 mph , 15 km/h, Gust: 26 mph , 43 km/h
Temperature: 75°F , 24°C
Dew Point: 59°F , 15°C
Humidity: 57%
Barometer: 29.88 inHg , 1011.9 hPa
Clouds: Partly Cloudy
Visibility: 10 miles , 16 km
Cloud details: Partly Cloudy 3900 ft
2019/07/23 16:54 KAVP 231654Z 01008G23KT 10SM SCT039 24/15 A2988 RMK AO2 SLP111 T02440150
KTHV - York, Pennsylvania, USA
Distance from station: SW 59mi, 94km
Updated: Tue, 23-Jul-2019 12:53pm EDT
Overcast
Overcast
 Wind from varies
Wind: varies 5 mph , 7 km/h
Temperature: 73°F , 23°C
Dew Point: 64°F , 18°C
Humidity: 74%
Barometer: 29.89 inHg , 1012.2 hPa
Clouds: Overcast
Visibility: 10 miles , 16 km
Cloud details: Partly Cloudy 2400 ft
Mostly Cloudy 3500 ft
Overcast 4300 ft
2019/07/23 16:53 KTHV 231653Z AUTO VRB04KT 10SM SCT024 BKN035 OVC043 23/18 A2989 RMK AO2 SLP121 T02330178
 
KDYL - Doylestown, Pennsylvania, USA
Distance from station: ESE 59mi, 95km
Updated: Tue, 23-Jul-2019 1:27pm EDT
Overcast
Overcast
 Wind from calm
Wind: Calm
Temperature: 73°F , 23°C
Dew Point: 64°F , 18°C
Humidity: 74%
Barometer: 29.87 inHg , 1011.5 hPa
Clouds: Overcast
Visibility: 10 miles , 16 km
Cloud details: Few Clouds 2100 ft
Partly Cloudy 2600 ft
Overcast 3200 ft
2019/07/23 17:27 KDYL 231727Z AUTO 00000KT 10SM FEW021 SCT026 OVC032 23/18 A2987 RMK AO2 T02280183
KIPT - Williamsport, Pennsylvania, USA
Distance from station: NW 60mi, 96km
Updated: Tue, 23-Jul-2019 12:54pm EDT
Few Clouds
Few Clouds
 Wind from varies
Wind: varies 6 mph , 9 km/h
Temperature: 79°F , 26°C
Dew Point: 54°F , 12°C
Humidity: 42%
Barometer: 29.88 inHg , 1011.9 hPa
Clouds: Few Clouds
Visibility: 10 miles , 16 km
Cloud details: Few Clouds 5000 ft
2019/07/23 16:54 KIPT 231654Z VRB05KT 10SM FEW050 26/12 A2988 RMK AO2 SLP115 T02560122